sensor_id;sensor_type;location;lat;lon;timestamp;pressure;altitude;pressure_sealevel;temperature;humidity
61026;BME280;46911;32.650;-16.902;2023-03-21T00:00:35;101816.13;;;15.34;76.67
61026;BME280;46911;32.650;-16.902;2023-03-21T00:02:39;101793.25;;;15.29;76.54
61026;BME280;46911;32.650;-16.902;2023-03-21T00:04:40;101793.44;;;15.26;76.60
61026;BME280;46911;32.650;-16.902;2023-03-21T00:06:41;101803.41;;;15.36;76.33
61026;BME280;46911;32.650;-16.902;2023-03-21T00:08:44;101811.28;;;15.39;76.36
61026;BME280;46911;32.650;-16.902;2023-03-21T00:10:57;101801.38;;;15.40;76.37
61026;BME280;46911;32.650;-16.902;2023-03-21T00:13:03;101794.09;;;15.29;75.99
61026;BME280;46911;32.650;-16.902;2023-03-21T00:15:09;101806.53;;;15.43;76.08
61026;BME280;46911;32.650;-16.902;2023-03-21T00:17:11;101782.16;;;15.33;75.91
61026;BME280;46911;32.650;-16.902;2023-03-21T00:19:11;101796.78;;;15.42;76.11
61026;BME280;46911;32.650;-16.902;2023-03-21T00:21:17;101793.44;;;15.38;76.11
61026;BME280;46911;32.650;-16.902;2023-03-21T00:23:20;101796.84;;;15.40;76.12
61026;BME280;46911;32.650;-16.902;2023-03-21T00:25:21;101795.28;;;15.38;76.04
61026;BME280;46911;32.650;-16.902;2023-03-21T00:27:24;101775.03;;;15.32;75.84
61026;BME280;46911;32.650;-16.902;2023-03-21T00:29:25;101789.13;;;15.36;75.81
61026;BME280;46911;32.650;-16.902;2023-03-21T00:31:26;101785.91;;;15.31;76.21
61026;BME280;46911;32.650;-16.902;2023-03-21T00:33:27;101793.31;;;15.27;76.39
61026;BME280;46911;32.650;-16.902;2023-03-21T00:35:29;101775.50;;;15.13;76.25
61026;BME280;46911;32.650;-16.902;2023-03-21T00:37:30;101774.94;;;15.08;76.25
61026;BME280;46911;32.650;-16.902;2023-03-21T00:39:34;101783.00;;;15.08;76.53
61026;BME280;46911;32.650;-16.902;2023-03-21T00:41:35;101779.47;;;15.07;76.68
61026;BME280;46911;32.650;-16.902;2023-03-21T00:43:36;101772.03;;;15.11;76.23
61026;BME280;46911;32.650;-16.902;2023-03-21T00:45:40;101748.31;;;15.05;76.32
61026;BME280;46911;32.650;-16.902;2023-03-21T00:47:44;101763.56;;;15.17;76.13
61026;BME280;46911;32.650;-16.902;2023-03-21T00:49:45;101766.00;;;15.20;76.23
61026;BME280;46911;32.650;-16.902;2023-03-21T00:51:47;101772.47;;;15.31;76.53
61026;BME280;46911;32.650;-16.902;2023-03-21T00:53:55;101750.00;;;15.19;76.41
61026;BME280;46911;32.650;-16.902;2023-03-21T00:56:02;101781.19;;;15.34;76.54
61026;BME280;46911;32.650;-16.902;2023-03-21T00:58:05;101761.53;;;15.21;76.41
61026;BME280;46911;32.650;-16.902;2023-03-21T01:00:08;101763.25;;;15.22;76.42
61026;BME280;46911;32.650;-16.902;2023-03-21T01:02:12;101765.59;;;15.27;76.29
61026;BME280;46911;32.650;-16.902;2023-03-21T01:04:22;101779.03;;;15.39;76.45
61026;BME280;46911;32.650;-16.902;2023-03-21T01:06:26;101756.34;;;15.31;76.11
61026;BME280;46911;32.650;-16.902;2023-03-21T01:08:37;101753.34;;;15.35;76.02
61026;BME280;46911;32.650;-16.902;2023-03-21T01:10:40;101774.38;;;15.42;75.69
61026;BME280;46911;32.650;-16.902;2023-03-21T01:12:42;101753.88;;;15.28;75.85
61026;BME280;46911;32.650;-16.902;2023-03-21T01:14:45;101752.25;;;15.25;75.92
61026;BME280;46911;32.650;-16.902;2023-03-21T01:16:48;101764.50;;;15.29;75.92
61026;BME280;46911;32.650;-16.902;2023-03-21T01:18:54;101752.56;;;15.20;75.90
61026;BME280;46911;32.650;-16.902;2023-03-21T01:20:59;101748.31;;;15.18;76.00
61026;BME280;46911;32.650;-16.902;2023-03-21T01:23:06;101765.59;;;15.27;75.85
61026;BME280;46911;32.650;-16.902;2023-03-21T01:25:10;101756.69;;;15.26;75.74
61026;BME280;46911;32.650;-16.902;2023-03-21T01:27:13;101747.44;;;15.17;75.87
61026;BME280;46911;32.650;-16.902;2023-03-21T01:29:18;101746.34;;;15.20;75.67
61026;BME280;46911;32.650;-16.902;2023-03-21T01:31:21;101756.78;;;15.25;75.76
61026;BME280;46911;32.650;-16.902;2023-03-21T01:33:24;101749.34;;;15.28;75.88
61026;BME280;46911;32.650;-16.902;2023-03-21T01:35:25;101736.78;;;15.16;76.33
61026;BME280;46911;32.650;-16.902;2023-03-21T01:37:26;101745.69;;;15.29;75.97
61026;BME280;46911;32.650;-16.902;2023-03-21T01:39:27;101725.81;;;15.19;75.81
61026;BME280;46911;32.650;-16.902;2023-03-21T01:43:34;101747.97;;;15.22;76.19
61026;BME280;46911;32.650;-16.902;2023-03-21T01:48:42;101732.19;;;15.05;76.28
61026;BME280;46911;32.650;-16.902;2023-03-21T01:50:44;101739.19;;;15.07;76.13
61026;BME280;46911;32.650;-16.902;2023-03-21T01:53:06;101737.69;;;15.03;76.30
61026;BME280;46911;32.650;-16.902;2023-03-21T01:55:10;101739.47;;;15.03;76.27
61026;BME280;46911;32.650;-16.902;2023-03-21T01:57:48;101756.91;;;15.10;76.08
61026;BME280;46911;32.650;-16.902;2023-03-21T01:59:50;101755.19;;;15.09;75.72
61026;BME280;46911;32.650;-16.902;2023-03-21T02:01:55;101739.59;;;15.01;75.67
61026;BME280;46911;32.650;-16.902;2023-03-21T02:04:01;101749.91;;;15.07;75.34
61026;BME280;46911;32.650;-16.902;2023-03-21T02:06:34;101736.38;;;14.96;75.64
61026;BME280;46911;32.650;-16.902;2023-03-21T02:09:10;101759.91;;;15.05;75.81
61026;BME280;46911;32.650;-16.902;2023-03-21T02:11:14;101742.94;;;14.92;75.72
61026;BME280;46911;32.650;-16.902;2023-03-21T02:13:19;101749.38;;;15.02;75.84
61026;BME280;46911;32.650;-16.902;2023-03-21T02:15:25;101751.09;;;15.03;75.45
61026;BME280;46911;32.650;-16.902;2023-03-21T02:17:46;101742.72;;;14.95;75.57
61026;BME280;46911;32.650;-16.902;2023-03-21T02:30:09;101735.19;;;14.75;76.55
61026;BME280;46911;32.650;-16.902;2023-03-21T02:35:27;101723.91;;;14.69;77.12
61026;BME280;46911;32.650;-16.902;2023-03-21T02:37:40;101702.06;;;14.61;76.78
61026;BME280;46911;32.650;-16.902;2023-03-21T02:39:52;101722.50;;;14.64;76.94
61026;BME280;46911;32.650;-16.902;2023-03-21T02:46:33;101713.13;;;14.56;76.72
61026;BME280;46911;32.650;-16.902;2023-03-21T02:51:06;101710.88;;;14.50;76.71
61026;BME280;46911;32.650;-16.902;2023-03-21T02:53:15;101710.88;;;14.50;76.56
61026;BME280;46911;32.650;-16.902;2023-03-21T02:55:30;101712.25;;;14.56;76.52
61026;BME280;46911;32.650;-16.902;2023-03-21T02:57:35;101696.16;;;14.43;76.36
61026;BME280;46911;32.650;-16.902;2023-03-21T02:59:40;101716.13;;;14.52;76.43
61026;BME280;46911;32.650;-16.902;2023-03-21T03:01:53;101704.84;;;14.47;76.33
61026;BME280;46911;32.650;-16.902;2023-03-21T03:03:54;101698.06;;;14.41;76.38
61026;BME280;46911;32.650;-16.902;2023-03-21T03:05:58;101687.84;;;14.33;76.26
61026;BME280;46911;32.650;-16.902;2023-03-21T03:10:44;101706.56;;;14.48;76.01
61026;BME280;46911;32.650;-16.902;2023-03-21T03:13:00;101701.19;;;14.48;75.62
61026;BME280;46911;32.650;-16.902;2023-03-21T03:15:37;101695.81;;;14.48;75.71
61026;BME280;46911;32.650;-16.902;2023-03-21T03:22:31;101689.38;;;14.50;75.50
61026;BME280;46911;32.650;-16.902;2023-03-21T03:24:41;101667.47;;;14.44;75.20
61026;BME280;46911;32.650;-16.902;2023-03-21T03:28:57;101650.72;;;14.27;75.59
61026;BME280;46911;32.650;-16.902;2023-03-21T03:31:02;101681.84;;;14.43;75.57
61026;BME280;46911;32.650;-16.902;2023-03-21T03:33:11;101654.25;;;14.28;75.59
61026;BME280;46911;32.650;-16.902;2023-03-21T03:35:18;101680.25;;;14.40;75.72
61026;BME280;46911;32.650;-16.902;2023-03-21T03:37:24;101675.75;;;14.40;75.95
61026;BME280;46911;32.650;-16.902;2023-03-21T03:39:36;101671.66;;;14.35;75.97
61026;BME280;46911;32.650;-16.902;2023-03-21T03:42:02;101669.19;;;14.32;76.42
61026;BME280;46911;32.650;-16.902;2023-03-21T03:44:11;101670.25;;;14.29;76.46
61026;BME280;46911;32.650;-16.902;2023-03-21T03:46:29;101651.13;;;14.21;76.64
61026;BME280;46911;32.650;-16.902;2023-03-21T03:48:31;101675.72;;;14.28;76.70
61026;BME280;46911;32.650;-16.902;2023-03-21T03:51:02;101676.91;;;14.23;76.80
61026;BME280;46911;32.650;-16.902;2023-03-21T03:53:39;101674.72;;;14.16;76.90
61026;BME280;46911;32.650;-16.902;2023-03-21T03:55:43;101659.47;;;14.03;76.98
61026;BME280;46911;32.650;-16.902;2023-03-21T03:57:50;101676.22;;;14.07;77.47
61026;BME280;46911;32.650;-16.902;2023-03-21T03:59:54;101676.41;;;14.04;77.61
61026;BME280;46911;32.650;-16.902;2023-03-21T04:02:24;101663.72;;;13.93;77.85
61026;BME280;46911;32.650;-16.902;2023-03-21T04:04:27;101665.47;;;13.94;77.76
61026;BME280;46911;32.650;-16.902;2023-03-21T04:06:35;101684.34;;;14.05;77.80
61026;BME280;46911;32.650;-16.902;2023-03-21T04:08:40;101664.63;;;13.94;77.67
61026;BME280;46911;32.650;-16.902;2023-03-21T04:10:42;101676.84;;;13.98;77.71
61026;BME280;46911;32.650;-16.902;2023-03-21T04:12:44;101684.16;;;14.09;77.25
61026;BME280;46911;32.650;-16.902;2023-03-21T04:15:13;101683.28;;;14.08;77.23
61026;BME280;46911;32.650;-16.902;2023-03-21T04:17:24;101683.63;;;14.03;77.29
61026;BME280;46911;32.650;-16.902;2023-03-21T04:19:27;101677.69;;;13.98;77.28
61026;BME280;46911;32.650;-16.902;2023-03-21T04:21:31;101671.50;;;13.98;77.38
61026;BME280;46911;32.650;-16.902;2023-03-21T04:23:34;101682.78;;;14.16;77.57
61026;BME280;46911;32.650;-16.902;2023-03-21T04:25:36;101691.91;;;14.13;77.21
61026;BME280;46911;32.650;-16.902;2023-03-21T04:27:38;101675.00;;;13.98;77.40
61026;BME280;46911;32.650;-16.902;2023-03-21T04:29:58;101688.97;;;14.03;77.36
61026;BME280;46911;32.650;-16.902;2023-03-21T04:32:21;101679.22;;;14.02;76.98
61026;BME280;46911;32.650;-16.902;2023-03-21T04:34:38;101681.78;;;14.04;76.54
61026;BME280;46911;32.650;-16.902;2023-03-21T04:36:41;101669.88;;;13.95;76.46
61026;BME280;46911;32.650;-16.902;2023-03-21T04:38:50;101680.38;;;13.98;76.50
61026;BME280;46911;32.650;-16.902;2023-03-21T04:40:51;101670.94;;;13.93;76.48
61026;BME280;46911;32.650;-16.902;2023-03-21T04:42:52;101690.72;;;14.04;76.60
61026;BME280;46911;32.650;-16.902;2023-03-21T04:44:56;101694.47;;;14.02;76.64
61026;BME280;46911;32.650;-16.902;2023-03-21T04:46:59;101676.19;;;13.94;76.47
61026;BME280;46911;32.650;-16.902;2023-03-21T04:49:01;101691.97;;;13.99;76.33
61026;BME280;46911;32.650;-16.902;2023-03-21T04:51:09;101674.88;;;13.87;76.28
61026;BME280;46911;32.650;-16.902;2023-03-21T04:53:10;101692.94;;;13.98;76.25
61026;BME280;46911;32.650;-16.902;2023-03-21T04:55:15;101707.75;;;14.03;75.82
61026;BME280;46911;32.650;-16.902;2023-03-21T04:57:16;101700.13;;;13.97;75.58
61026;BME280;46911;32.650;-16.902;2023-03-21T04:59:18;101713.34;;;14.00;75.37
61026;BME280;46911;32.650;-16.902;2023-03-21T05:01:19;101699.16;;;13.98;75.29
61026;BME280;46911;32.650;-16.902;2023-03-21T05:03:24;101683.13;;;13.84;75.09
61026;BME280;46911;32.650;-16.902;2023-03-21T05:05:25;101695.91;;;13.93;75.03
61026;BME280;46911;32.650;-16.902;2023-03-21T05:07:31;101707.31;;;13.97;74.75
61026;BME280;46911;32.650;-16.902;2023-03-21T05:09:32;101703.00;;;13.94;74.75
61026;BME280;46911;32.650;-16.902;2023-03-21T05:11:38;101700.53;;;13.91;74.61
61026;BME280;46911;32.650;-16.902;2023-03-21T05:13:40;101686.00;;;13.81;74.63
61026;BME280;46911;32.650;-16.902;2023-03-21T05:15:41;101687.06;;;13.78;74.58
61026;BME280;46911;32.650;-16.902;2023-03-21T05:17:44;101712.00;;;13.93;74.53
61026;BME280;46911;32.650;-16.902;2023-03-21T05:19:52;101713.63;;;13.96;73.86
61026;BME280;46911;32.650;-16.902;2023-03-21T05:22:06;101686.56;;;13.86;73.34
61026;BME280;46911;32.650;-16.902;2023-03-21T05:24:10;101713.34;;;14.00;73.40
61026;BME280;46911;32.650;-16.902;2023-03-21T05:26:17;101667.44;;;13.78;72.92
61026;BME280;46911;32.650;-16.902;2023-03-21T05:28:27;101704.31;;;14.01;72.53
61026;BME280;46911;32.650;-16.902;2023-03-21T05:30:33;101690.44;;;13.95;72.35
61026;BME280;46911;32.650;-16.902;2023-03-21T05:32:37;101711.84;;;14.09;71.86
61026;BME280;46911;32.650;-16.902;2023-03-21T05:34:43;101708.09;;;14.12;71.21
61026;BME280;46911;32.650;-16.902;2023-03-21T05:36:46;101693.19;;;14.07;70.96
61026;BME280;46911;32.650;-16.902;2023-03-21T05:38:47;101693.47;;;14.03;70.60
61026;BME280;46911;32.650;-16.902;2023-03-21T05:40:50;101697.25;;;14.00;70.39
61026;BME280;46911;32.650;-16.902;2023-03-21T05:42:51;101702.19;;;14.06;70.22
61026;BME280;46911;32.650;-16.902;2023-03-21T05:44:56;101704.97;;;14.05;70.33
61026;BME280;46911;32.650;-16.902;2023-03-21T05:47:03;101693.25;;;13.93;70.14
61026;BME280;46911;32.650;-16.902;2023-03-21T05:49:15;101708.44;;;14.07;69.84
61026;BME280;46911;32.650;-16.902;2023-03-21T05:51:26;101703.13;;;14.05;69.31
61026;BME280;46911;32.650;-16.902;2023-03-21T05:53:27;101694.00;;;13.95;69.40
61026;BME280;46911;32.650;-16.902;2023-03-21T05:55:30;101696.78;;;13.94;69.19
61026;BME280;46911;32.650;-16.902;2023-03-21T05:57:34;101693.66;;;13.87;69.27
61026;BME280;46911;32.650;-16.902;2023-03-21T05:59:43;101707.31;;;13.97;69.03
61026;BME280;46911;32.650;-16.902;2023-03-21T06:01:44;101692.69;;;13.88;68.99
61026;BME280;46911;32.650;-16.902;2023-03-21T06:03:52;101687.53;;;13.85;69.11
61026;BME280;46911;32.650;-16.902;2023-03-21T06:05:58;101692.88;;;13.85;69.02
61026;BME280;46911;32.650;-16.902;2023-03-21T06:08:11;101719.50;;;13.88;69.19
61026;BME280;46911;32.650;-16.902;2023-03-21T06:10:13;101692.53;;;13.77;69.20
61026;BME280;46911;32.650;-16.902;2023-03-21T06:12:22;101717.38;;;13.93;68.91
61026;BME280;46911;32.650;-16.902;2023-03-21T06:14:43;101708.88;;;13.86;69.02
61026;BME280;46911;32.650;-16.902;2023-03-21T06:17:04;101683.94;;;13.71;69.06
61026;BME280;46911;32.650;-16.902;2023-03-21T06:19:15;101688.75;;;13.66;69.17
61026;BME280;46911;32.650;-16.902;2023-03-21T06:21:39;101689.69;;;13.65;69.02
61026;BME280;46911;32.650;-16.902;2023-03-21T06:23:41;101714.56;;;13.82;68.99
61026;BME280;46911;32.650;-16.902;2023-03-21T06:25:42;101695.63;;;13.70;69.09
61026;BME280;46911;32.650;-16.902;2023-03-21T06:27:43;101703.38;;;13.75;69.17
61026;BME280;46911;32.650;-16.902;2023-03-21T06:29:44;101688.94;;;13.63;69.07
61026;BME280;46911;32.650;-16.902;2023-03-21T06:31:46;101705.28;;;13.73;69.42
61026;BME280;46911;32.650;-16.902;2023-03-21T06:33:48;101696.22;;;13.61;69.47
61026;BME280;46911;32.650;-16.902;2023-03-21T06:35:54;101699.84;;;13.60;69.59
61026;BME280;46911;32.650;-16.902;2023-03-21T06:37:57;101692.13;;;13.55;69.93
61026;BME280;46911;32.650;-16.902;2023-03-21T06:40:04;101692.50;;;13.49;70.16
61026;BME280;46911;32.650;-16.902;2023-03-21T06:42:09;101699.59;;;13.50;70.38
61026;BME280;46911;32.650;-16.902;2023-03-21T06:44:10;101714.88;;;13.63;70.45
61026;BME280;46911;32.650;-16.902;2023-03-21T06:46:19;101701.56;;;13.61;70.59
61026;BME280;46911;32.650;-16.902;2023-03-21T06:48:26;101714.69;;;13.66;70.77
61026;BME280;46911;32.650;-16.902;2023-03-21T06:50:28;101695.25;;;13.62;70.86
61026;BME280;46911;32.650;-16.902;2023-03-21T06:52:35;101717.41;;;13.79;70.83
61026;BME280;46911;32.650;-16.902;2023-03-21T06:54:39;101722.72;;;13.80;70.92
61026;BME280;46911;32.650;-16.902;2023-03-21T06:56:45;101707.00;;;13.74;71.09
61026;BME280;46911;32.650;-16.902;2023-03-21T06:58:55;101727.19;;;13.80;71.21
61026;BME280;46911;32.650;-16.902;2023-03-21T07:01:16;101725.88;;;13.72;71.20
61026;BME280;46911;32.650;-16.902;2023-03-21T07:03:29;101719.50;;;13.61;71.68
61026;BME280;46911;32.650;-16.902;2023-03-21T07:05:35;101718.16;;;13.53;71.96
61026;BME280;46911;32.650;-16.902;2023-03-21T07:07:39;101729.09;;;13.50;72.37
61026;BME280;46911;32.650;-16.902;2023-03-21T07:09:43;101712.91;;;13.52;72.26
61026;BME280;46911;32.650;-16.902;2023-03-21T07:11:44;101712.72;;;13.55;72.40
61026;BME280;46911;32.650;-16.902;2023-03-21T07:13:45;101725.81;;;13.60;72.29
61026;BME280;46911;32.650;-16.902;2023-03-21T07:15:48;101727.44;;;13.62;72.36
61026;BME280;46911;32.650;-16.902;2023-03-21T07:17:49;101712.41;;;13.60;72.16
61026;BME280;46911;32.650;-16.902;2023-03-21T07:19:50;101707.44;;;13.53;72.37
61026;BME280;46911;32.650;-16.902;2023-03-21T07:21:52;101722.19;;;13.61;72.34
61026;BME280;46911;32.650;-16.902;2023-03-21T07:23:56;101724.75;;;13.62;72.21
61026;BME280;46911;32.650;-16.902;2023-03-21T07:25:57;101726.47;;;13.63;71.74
61026;BME280;46911;32.650;-16.902;2023-03-21T07:28:00;101710.69;;;13.59;72.03
61026;BME280;46911;32.650;-16.902;2023-03-21T07:30:09;101722.31;;;13.72;71.66
61026;BME280;46911;32.650;-16.902;2023-03-21T07:32:10;101727.69;;;13.72;71.85
61026;BME280;46911;32.650;-16.902;2023-03-21T07:34:16;101729.31;;;13.75;71.69
61026;BME280;46911;32.650;-16.902;2023-03-21T07:36:19;101716.00;;;13.73;71.57
61026;BME280;46911;32.650;-16.902;2023-03-21T07:38:24;101715.16;;;13.72;71.23
61026;BME280;46911;32.650;-16.902;2023-03-21T07:40:32;101708.91;;;13.72;71.18
61026;BME280;46911;32.650;-16.902;2023-03-21T07:42:34;101710.44;;;13.76;70.97
61026;BME280;46911;32.650;-16.902;2023-03-21T07:44:40;101708.63;;;13.77;70.70
61026;BME280;46911;32.650;-16.902;2023-03-21T07:46:44;101708.97;;;13.85;70.57
61026;BME280;46911;32.650;-16.902;2023-03-21T07:48:45;101723.97;;;14.02;70.41
61026;BME280;46911;32.650;-16.902;2023-03-21T07:50:48;101733.19;;;14.11;70.24
61026;BME280;46911;32.650;-16.902;2023-03-21T07:52:49;101723.69;;;14.19;69.82
61026;BME280;46911;32.650;-16.902;2023-03-21T07:54:50;101723.38;;;14.24;69.64
61026;BME280;46911;32.650;-16.902;2023-03-21T07:56:51;101683.41;;;14.06;69.22
61026;BME280;46911;32.650;-16.902;2023-03-21T07:58:52;101730.28;;;14.41;68.62
61026;BME280;46911;32.650;-16.902;2023-03-21T08:00:53;101704.41;;;14.27;68.48
61026;BME280;46911;32.650;-16.902;2023-03-21T08:02:59;101731.28;;;14.53;68.10
61026;BME280;46911;32.650;-16.902;2023-03-21T08:05:00;101726.34;;;14.60;67.67
61026;BME280;46911;32.650;-16.902;2023-03-21T08:07:03;101733.91;;;14.67;67.32
61026;BME280;46911;32.650;-16.902;2023-03-21T08:09:04;101730.88;;;14.72;67.08
61026;BME280;46911;32.650;-16.902;2023-03-21T08:11:09;101717.97;;;14.64;66.87
61026;BME280;46911;32.650;-16.902;2023-03-21T08:13:11;101720.91;;;14.74;66.44
61026;BME280;46911;32.650;-16.902;2023-03-21T08:15:12;101717.78;;;14.80;66.18
61026;BME280;46911;32.650;-16.902;2023-03-21T08:17:18;101740.13;;;14.94;65.78
61026;BME280;46911;32.650;-16.902;2023-03-21T08:19:19;101716.19;;;14.90;65.25
61026;BME280;46911;32.650;-16.902;2023-03-21T08:21:23;101686.44;;;14.81;64.88
61026;BME280;46911;32.650;-16.902;2023-03-21T08:23:25;101735.59;;;15.07;64.95
61026;BME280;46911;32.650;-16.902;2023-03-21T08:25:28;101728.97;;;15.13;64.95
61026;BME280;46911;32.650;-16.902;2023-03-21T08:27:31;101713.25;;;15.06;64.53
61026;BME280;46911;32.650;-16.902;2023-03-21T08:29:36;101727.00;;;15.15;64.54
61026;BME280;46911;32.650;-16.902;2023-03-21T08:31:42;101737.09;;;15.24;64.47
61026;BME280;46911;32.650;-16.902;2023-03-21T08:33:45;101736.78;;;15.29;64.48
61026;BME280;46911;32.650;-16.902;2023-03-21T08:35:49;101730.34;;;15.31;64.37
61026;BME280;46911;32.650;-16.902;2023-03-21T08:37:50;101729.34;;;15.32;64.15
61026;BME280;46911;32.650;-16.902;2023-03-21T08:39:53;101742.66;;;15.47;64.35
61026;BME280;46911;32.650;-16.902;2023-03-21T08:41:54;101744.38;;;15.48;64.22
61026;BME280;46911;32.650;-16.902;2023-03-21T08:43:55;101729.97;;;15.49;64.29
61026;BME280;46911;32.650;-16.902;2023-03-21T08:45:56;101735.53;;;15.59;64.00
61026;BME280;46911;32.650;-16.902;2023-03-21T08:47:57;101747.78;;;15.63;63.81
61026;BME280;46911;32.650;-16.902;2023-03-21T08:50:01;101759.22;;;15.78;63.59
61026;BME280;46911;32.650;-16.902;2023-03-21T08:52:02;101740.28;;;15.79;63.78
61026;BME280;46911;32.650;-16.902;2023-03-21T08:54:03;101753.63;;;15.94;63.48
61026;BME280;46911;32.650;-16.902;2023-03-21T08:56:04;101734.16;;;15.90;63.45
61026;BME280;46911;32.650;-16.902;2023-03-21T08:58:09;101766.78;;;16.10;63.43
61026;BME280;46911;32.650;-16.902;2023-03-21T09:00:16;101757.19;;;16.18;63.66
61026;BME280;46911;32.650;-16.902;2023-03-21T09:02:17;101755.72;;;16.26;63.40
61026;BME280;46911;32.650;-16.902;2023-03-21T09:04:18;101740.22;;;16.29;63.32
61026;BME280;46911;32.650;-16.902;2023-03-21T09:06:27;101769.28;;;16.48;63.22
61026;BME280;46911;32.650;-16.902;2023-03-21T09:08:29;101756.06;;;16.56;62.94
61026;BME280;46911;32.650;-16.902;2023-03-21T09:10:33;101775.13;;;16.78;62.82
61026;BME280;46911;32.650;-16.902;2023-03-21T09:12:37;101777.03;;;17.00;64.85
61026;BME280;46911;32.650;-16.902;2023-03-21T09:14:40;101761.69;;;16.89;67.54
61026;BME280;46911;32.650;-16.902;2023-03-21T09:16:41;101778.13;;;16.97;68.21
61026;BME280;46911;32.650;-16.902;2023-03-21T09:18:48;101781.47;;;17.12;67.57
61026;BME280;46911;32.650;-16.902;2023-03-21T09:20:50;101781.22;;;17.27;66.63
61026;BME280;46911;32.650;-16.902;2023-03-21T09:22:51;101779.63;;;17.35;67.43
61026;BME280;46911;32.650;-16.902;2023-03-21T09:24:56;101772.41;;;17.36;66.36
61026;BME280;46911;32.650;-16.902;2023-03-21T09:26:58;101794.41;;;17.86;65.25
61026;BME280;46911;32.650;-16.902;2023-03-21T09:29:00;101794.66;;;18.92;62.84
61026;BME280;46911;32.650;-16.902;2023-03-21T09:31:03;101788.31;;;18.82;59.88
61026;BME280;46911;32.650;-16.902;2023-03-21T09:33:05;101784.44;;;20.37;57.72
61026;BME280;46911;32.650;-16.902;2023-03-21T09:35:09;101795.81;;;19.61;56.96
61026;BME280;46911;32.650;-16.902;2023-03-21T09:37:12;101788.31;;;20.45;54.90
61026;BME280;46911;32.650;-16.902;2023-03-21T09:39:13;101787.59;;;20.43;54.73
61026;BME280;46911;32.650;-16.902;2023-03-21T09:41:41;101793.44;;;20.48;55.41
61026;BME280;46911;32.650;-16.902;2023-03-21T09:46:34;101817.44;;;21.95;50.31
61026;BME280;46911;32.650;-16.902;2023-03-21T09:50:52;101807.50;;;21.85;49.45
61026;BME280;46911;32.650;-16.902;2023-03-21T09:55:03;101830.97;;;22.95;47.37
61026;BME280;46911;32.650;-16.902;2023-03-21T09:57:41;101815.53;;;23.90;44.48
61026;BME280;46911;32.650;-16.902;2023-03-21T09:59:47;101816.16;;;24.60;43.86
61026;BME280;46911;32.650;-16.902;2023-03-21T10:01:50;101829.47;;;24.96;43.03
61026;BME280;46911;32.650;-16.902;2023-03-21T10:03:53;101811.50;;;25.74;40.94
61026;BME280;46911;32.650;-16.902;2023-03-21T10:05:58;101814.78;;;25.05;41.78
61026;BME280;46911;32.650;-16.902;2023-03-21T10:08:13;101836.50;;;25.95;40.69
61026;BME280;46911;32.650;-16.902;2023-03-21T10:10:21;101830.09;;;26.42;40.10
61026;BME280;46911;32.650;-16.902;2023-03-21T10:12:23;101843.38;;;25.90;40.28
61026;BME280;46911;32.650;-16.902;2023-03-21T10:14:48;101837.66;;;24.63;42.93
61026;BME280;46911;32.650;-16.902;2023-03-21T10:16:57;101845.84;;;24.63;43.65
61026;BME280;46911;32.650;-16.902;2023-03-21T10:19:15;101845.16;;;24.86;42.76
61026;BME280;46911;32.650;-16.902;2023-03-21T10:21:28;101852.56;;;24.10;44.34
61026;BME280;46911;32.650;-16.902;2023-03-21T10:23:31;101845.47;;;24.33;43.54
61026;BME280;46911;32.650;-16.902;2023-03-21T10:27:35;101844.88;;;25.53;41.99
61026;BME280;46911;32.650;-16.902;2023-03-21T10:29:42;101851.13;;;24.81;43.41
61026;BME280;46911;32.650;-16.902;2023-03-21T10:31:50;101843.63;;;24.92;42.90
61026;BME280;46911;32.650;-16.902;2023-03-21T10:33:55;101863.94;;;24.64;43.22
61026;BME280;46911;32.650;-16.902;2023-03-21T10:36:04;101865.22;;;25.43;42.21
61026;BME280;46911;32.650;-16.902;2023-03-21T10:38:17;101849.13;;;25.56;41.09
61026;BME280;46911;32.650;-16.902;2023-03-21T10:40:21;101853.50;;;25.01;42.65
61026;BME280;46911;32.650;-16.902;2023-03-21T10:42:26;101850.28;;;24.64;42.71
61026;BME280;46911;32.650;-16.902;2023-03-21T10:44:33;101841.06;;;26.11;40.88
61026;BME280;46911;32.650;-16.902;2023-03-21T10:46:36;101838.31;;;25.23;42.53
61026;BME280;46911;32.650;-16.902;2023-03-21T10:48:42;101846.00;;;25.11;42.95
61026;BME280;46911;32.650;-16.902;2023-03-21T10:50:51;101863.41;;;24.77;43.63
61026;BME280;46911;32.650;-16.902;2023-03-21T10:52:58;101862.53;;;24.60;44.12
61026;BME280;46911;32.650;-16.902;2023-03-21T10:55:30;101867.59;;;24.30;44.72
61026;BME280;46911;32.650;-16.902;2023-03-21T10:57:32;101862.47;;;24.27;44.84
61026;BME280;46911;32.650;-16.902;2023-03-21T10:59:42;101861.84;;;25.16;42.96
61026;BME280;46911;32.650;-16.902;2023-03-21T11:01:48;101864.09;;;23.95;45.22
61026;BME280;46911;32.650;-16.902;2023-03-21T11:03:57;101860.13;;;25.31;42.95
61026;BME280;46911;32.650;-16.902;2023-03-21T11:06:32;101859.03;;;26.60;40.24
61026;BME280;46911;32.650;-16.902;2023-03-21T11:08:26;101852.72;;;26.59;40.31
61026;BME280;46911;32.650;-16.902;2023-03-21T11:10:33;101847.00;;;25.18;42.56
61026;BME280;46911;32.650;-16.902;2023-03-21T11:12:39;101865.97;;;24.95;43.22
61026;BME280;46911;32.650;-16.902;2023-03-21T11:14:49;101860.78;;;26.29;40.79
61026;BME280;46911;32.650;-16.902;2023-03-21T11:16:52;101851.94;;;25.31;42.86
61026;BME280;46911;32.650;-16.902;2023-03-21T11:19:01;101869.69;;;25.92;41.16
61026;BME280;46911;32.650;-16.902;2023-03-21T11:21:08;101853.19;;;26.63;40.67
61026;BME280;46911;32.650;-16.902;2023-03-21T11:23:11;101862.28;;;27.01;39.87
61026;BME280;46911;32.650;-16.902;2023-03-21T11:25:28;101849.28;;;26.02;41.17
61026;BME280;46911;32.650;-16.902;2023-03-21T11:27:34;101862.31;;;26.55;40.56